Terminal Aerodrome Forecast
Issued by NWS

Current Version | Previous Version | Graphics & Text | Print | Product List | Glossary On
Versions: 1 2 3 4 5 6 7 8 9 10 11 12 13 14 15 16 17 18 19 20 21 22 23 24 25 26 27 28
000
FTUS41 KILN 191100
TAFLUK
TAF
KLUK 191134Z 1912/2012 VRB03KT 1/2SM FG VV003
      TEMPO 1912/1913 1/4SM FG VV001
     FM191400 00000KT 1SM BR BKN004
     FM191500 23004KT 4SM HZ SCT008 SCT040
     FM191700 24007KT P6SM BKN040
     FM200300 23006KT P6SM VCTS BKN040CB
     FM200900 00000KT 4SM BR BKN040=

USA.gov is the U.S. government's official web portal to all federal, state and local government web resources and services.